sensor_id;sensor_type;location;lat;lon;timestamp;P1;durP1;ratioP1;P2;durP2;ratioP2
49458;SDS011;35354;51.296;16.924;2023-08-31T00:02:16;10.00;;;8.68;;
49458;SDS011;35354;51.296;16.924;2023-08-31T00:04:41;10.80;;;8.25;;
49458;SDS011;35354;51.296;16.924;2023-08-31T00:07:07;9.93;;;8.93;;
49458;SDS011;35354;51.296;16.924;2023-08-31T00:09:32;12.68;;;10.23;;
49458;SDS011;35354;51.296;16.924;2023-08-31T00:11:57;9.80;;;8.73;;
49458;SDS011;35354;51.296;16.924;2023-08-31T00:14:23;12.57;;;9.55;;
49458;SDS011;35354;51.296;16.924;2023-08-31T00:16:49;12.10;;;9.48;;
49458;SDS011;35354;51.296;16.924;2023-08-31T00:19:15;10.57;;;9.38;;
49458;SDS011;35354;51.296;16.924;2023-08-31T00:21:40;11.05;;;9.20;;
49458;SDS011;35354;51.296;16.924;2023-08-31T00:24:06;11.70;;;9.77;;
49458;SDS011;35354;51.296;16.924;2023-08-31T00:26:32;10.80;;;9.70;;
49458;SDS011;35354;51.296;16.924;2023-08-31T00:28:58;10.65;;;9.32;;
49458;SDS011;35354;51.296;16.924;2023-08-31T00:31:23;14.73;;;10.63;;
49458;SDS011;35354;51.296;16.924;2023-08-31T00:33:49;11.48;;;9.95;;
49458;SDS011;35354;51.296;16.924;2023-08-31T00:36:15;13.15;;;9.68;;
49458;SDS011;35354;51.296;16.924;2023-08-31T00:38:40;11.07;;;9.20;;
49458;SDS011;35354;51.296;16.924;2023-08-31T00:41:06;10.57;;;8.40;;
49458;SDS011;35354;51.296;16.924;2023-08-31T00:43:32;12.00;;;10.27;;
49458;SDS011;35354;51.296;16.924;2023-08-31T00:45:58;10.25;;;8.88;;
49458;SDS011;35354;51.296;16.924;2023-08-31T00:48:24;12.35;;;10.88;;
49458;SDS011;35354;51.296;16.924;2023-08-31T00:50:50;11.10;;;9.95;;
49458;SDS011;35354;51.296;16.924;2023-08-31T00:53:16;11.73;;;9.13;;
49458;SDS011;35354;51.296;16.924;2023-08-31T00:55:45;10.75;;;9.45;;
49458;SDS011;35354;51.296;16.924;2023-08-31T00:58:11;10.43;;;9.35;;
49458;SDS011;35354;51.296;16.924;2023-08-31T01:00:44;11.85;;;9.18;;
49458;SDS011;35354;51.296;16.924;2023-08-31T01:03:43;12.43;;;9.80;;
49458;SDS011;35354;51.296;16.924;2023-08-31T01:06:23;11.43;;;9.30;;
49458;SDS011;35354;51.296;16.924;2023-08-31T01:14:16;11.77;;;9.45;;
49458;SDS011;35354;51.296;16.924;2023-08-31T01:16:44;10.13;;;9.02;;
49458;SDS011;35354;51.296;16.924;2023-08-31T01:19:28;12.40;;;9.20;;
49458;SDS011;35354;51.296;16.924;2023-08-31T01:22:05;10.70;;;9.15;;
49458;SDS011;35354;51.296;16.924;2023-08-31T01:24:36;9.75;;;8.75;;
49458;SDS011;35354;51.296;16.924;2023-08-31T01:27:02;11.05;;;9.27;;
49458;SDS011;35354;51.296;16.924;2023-08-31T01:29:29;11.02;;;9.18;;
49458;SDS011;35354;51.296;16.924;2023-08-31T01:31:55;10.43;;;8.98;;
49458;SDS011;35354;51.296;16.924;2023-08-31T01:34:33;11.30;;;9.38;;
49458;SDS011;35354;51.296;16.924;2023-08-31T01:37:00;10.15;;;8.90;;
49458;SDS011;35354;51.296;16.924;2023-08-31T01:39:41;10.13;;;8.88;;
49458;SDS011;35354;51.296;16.924;2023-08-31T01:42:24;10.15;;;9.02;;
49458;SDS011;35354;51.296;16.924;2023-08-31T01:44:52;10.00;;;9.00;;
49458;SDS011;35354;51.296;16.924;2023-08-31T01:47:20;11.25;;;10.15;;
49458;SDS011;35354;51.296;16.924;2023-08-31T01:49:45;16.63;;;11.15;;
49458;SDS011;35354;51.296;16.924;2023-08-31T01:52:11;14.35;;;10.85;;
49458;SDS011;35354;51.296;16.924;2023-08-31T01:54:36;13.32;;;10.10;;
49458;SDS011;35354;51.296;16.924;2023-08-31T01:57:04;13.30;;;10.10;;
49458;SDS011;35354;51.296;16.924;2023-08-31T01:59:31;14.10;;;10.32;;
49458;SDS011;35354;51.296;16.924;2023-08-31T02:01:57;11.27;;;10.05;;
49458;SDS011;35354;51.296;16.924;2023-08-31T02:04:23;11.82;;;9.68;;
49458;SDS011;35354;51.296;16.924;2023-08-31T02:06:48;13.55;;;9.85;;
49458;SDS011;35354;51.296;16.924;2023-08-31T02:09:14;13.45;;;11.27;;
49458;SDS011;35354;51.296;16.924;2023-08-31T02:11:39;15.32;;;11.27;;
49458;SDS011;35354;51.296;16.924;2023-08-31T02:14:05;12.23;;;10.18;;
49458;SDS011;35354;51.296;16.924;2023-08-31T02:16:31;14.35;;;9.55;;
49458;SDS011;35354;51.296;16.924;2023-08-31T02:18:56;12.85;;;10.38;;
49458;SDS011;35354;51.296;16.924;2023-08-31T02:21:22;11.85;;;9.52;;
49458;SDS011;35354;51.296;16.924;2023-08-31T02:23:48;11.48;;;9.60;;
49458;SDS011;35354;51.296;16.924;2023-08-31T02:26:13;11.10;;;9.82;;
49458;SDS011;35354;51.296;16.924;2023-08-31T02:28:38;11.43;;;9.48;;
49458;SDS011;35354;51.296;16.924;2023-08-31T02:31:03;11.18;;;9.40;;
49458;SDS011;35354;51.296;16.924;2023-08-31T02:33:29;11.32;;;9.40;;
49458;SDS011;35354;51.296;16.924;2023-08-31T02:35:54;10.88;;;9.48;;
49458;SDS011;35354;51.296;16.924;2023-08-31T02:38:20;12.88;;;9.13;;
49458;SDS011;35354;51.296;16.924;2023-08-31T02:40:46;11.60;;;9.10;;
49458;SDS011;35354;51.296;16.924;2023-08-31T02:43:12;10.35;;;8.82;;
49458;SDS011;35354;51.296;16.924;2023-08-31T02:45:38;11.68;;;10.32;;
49458;SDS011;35354;51.296;16.924;2023-08-31T02:48:03;11.68;;;9.77;;
49458;SDS011;35354;51.296;16.924;2023-08-31T02:50:31;14.70;;;9.75;;
49458;SDS011;35354;51.296;16.924;2023-08-31T02:52:56;11.68;;;9.32;;
49458;SDS011;35354;51.296;16.924;2023-08-31T02:55:22;12.32;;;10.20;;
49458;SDS011;35354;51.296;16.924;2023-08-31T02:57:48;11.23;;;9.05;;
49458;SDS011;35354;51.296;16.924;2023-08-31T03:00:13;13.73;;;9.68;;
49458;SDS011;35354;51.296;16.924;2023-08-31T03:02:39;11.95;;;9.65;;
49458;SDS011;35354;51.296;16.924;2023-08-31T03:05:05;12.38;;;10.32;;
49458;SDS011;35354;51.296;16.924;2023-08-31T03:07:31;14.98;;;10.45;;
49458;SDS011;35354;51.296;16.924;2023-08-31T03:09:57;11.30;;;9.55;;
49458;SDS011;35354;51.296;16.924;2023-08-31T03:12:22;11.85;;;9.65;;
49458;SDS011;35354;51.296;16.924;2023-08-31T03:14:48;11.80;;;9.07;;
49458;SDS011;35354;51.296;16.924;2023-08-31T03:17:13;10.68;;;9.38;;
49458;SDS011;35354;51.296;16.924;2023-08-31T03:19:38;11.60;;;9.90;;
49458;SDS011;35354;51.296;16.924;2023-08-31T03:22:04;12.32;;;10.75;;
49458;SDS011;35354;51.296;16.924;2023-08-31T03:24:29;12.20;;;10.18;;
49458;SDS011;35354;51.296;16.924;2023-08-31T03:26:56;10.52;;;9.32;;
49458;SDS011;35354;51.296;16.924;2023-08-31T03:29:21;12.75;;;11.05;;
49458;SDS011;35354;51.296;16.924;2023-08-31T03:31:47;12.38;;;10.65;;
49458;SDS011;35354;51.296;16.924;2023-08-31T03:34:12;13.73;;;9.82;;
49458;SDS011;35354;51.296;16.924;2023-08-31T03:36:37;14.25;;;11.93;;
49458;SDS011;35354;51.296;16.924;2023-08-31T03:39:02;15.48;;;10.57;;
49458;SDS011;35354;51.296;16.924;2023-08-31T03:41:28;18.05;;;12.75;;
49458;SDS011;35354;51.296;16.924;2023-08-31T03:43:53;14.07;;;11.15;;
49458;SDS011;35354;51.296;16.924;2023-08-31T03:46:19;14.52;;;11.50;;
49458;SDS011;35354;51.296;16.924;2023-08-31T03:48:44;14.65;;;11.13;;
49458;SDS011;35354;51.296;16.924;2023-08-31T03:51:09;13.63;;;11.50;;
49458;SDS011;35354;51.296;16.924;2023-08-31T03:53:35;12.57;;;11.13;;
49458;SDS011;35354;51.296;16.924;2023-08-31T03:56:00;13.30;;;11.75;;
49458;SDS011;35354;51.296;16.924;2023-08-31T03:58:25;18.38;;;14.35;;
49458;SDS011;35354;51.296;16.924;2023-08-31T04:00:51;15.68;;;12.80;;
49458;SDS011;35354;51.296;16.924;2023-08-31T04:03:16;14.00;;;11.55;;
49458;SDS011;35354;51.296;16.924;2023-08-31T04:05:41;14.88;;;13.27;;
49458;SDS011;35354;51.296;16.924;2023-08-31T04:08:07;17.02;;;12.65;;
49458;SDS011;35354;51.296;16.924;2023-08-31T04:10:32;16.75;;;13.80;;
49458;SDS011;35354;51.296;16.924;2023-08-31T04:24:56;11.52;;;10.38;;
49458;SDS011;35354;51.296;16.924;2023-08-31T04:27:22;12.63;;;10.63;;
49458;SDS011;35354;51.296;16.924;2023-08-31T04:29:47;13.05;;;10.43;;
49458;SDS011;35354;51.296;16.924;2023-08-31T04:32:13;12.40;;;11.10;;
49458;SDS011;35354;51.296;16.924;2023-08-31T04:34:38;12.95;;;10.55;;
49458;SDS011;35354;51.296;16.924;2023-08-31T04:37:04;12.77;;;10.68;;
49458;SDS011;35354;51.296;16.924;2023-08-31T04:39:29;13.30;;;11.82;;
49458;SDS011;35354;51.296;16.924;2023-08-31T04:41:54;12.23;;;10.25;;
49458;SDS011;35354;51.296;16.924;2023-08-31T04:44:19;13.40;;;11.13;;
49458;SDS011;35354;51.296;16.924;2023-08-31T04:46:45;14.38;;;11.38;;
49458;SDS011;35354;51.296;16.924;2023-08-31T04:49:10;13.07;;;11.73;;
49458;SDS011;35354;51.296;16.924;2023-08-31T04:51:36;15.23;;;12.57;;
49458;SDS011;35354;51.296;16.924;2023-08-31T04:54:06;16.13;;;12.02;;
49458;SDS011;35354;51.296;16.924;2023-08-31T04:56:32;14.02;;;12.45;;
49458;SDS011;35354;51.296;16.924;2023-08-31T04:58:58;14.77;;;11.65;;
49458;SDS011;35354;51.296;16.924;2023-08-31T05:01:24;14.10;;;12.05;;
49458;SDS011;35354;51.296;16.924;2023-08-31T05:03:50;12.50;;;11.15;;
49458;SDS011;35354;51.296;16.924;2023-08-31T05:06:15;12.32;;;11.10;;
49458;SDS011;35354;51.296;16.924;2023-08-31T05:08:41;13.38;;;11.52;;
49458;SDS011;35354;51.296;16.924;2023-08-31T05:11:06;15.00;;;11.82;;
49458;SDS011;35354;51.296;16.924;2023-08-31T05:13:32;15.15;;;12.85;;
49458;SDS011;35354;51.296;16.924;2023-08-31T05:15:57;12.60;;;11.05;;
49458;SDS011;35354;51.296;16.924;2023-08-31T05:18:22;18.35;;;10.90;;
49458;SDS011;35354;51.296;16.924;2023-08-31T05:20:48;14.82;;;12.40;;
49458;SDS011;35354;51.296;16.924;2023-08-31T05:23:16;13.57;;;11.13;;
49458;SDS011;35354;51.296;16.924;2023-08-31T05:25:44;11.85;;;10.65;;
49458;SDS011;35354;51.296;16.924;2023-08-31T05:28:10;15.30;;;11.30;;
49458;SDS011;35354;51.296;16.924;2023-08-31T05:30:35;10.90;;;9.75;;
49458;SDS011;35354;51.296;16.924;2023-08-31T05:33:01;13.00;;;9.98;;
49458;SDS011;35354;51.296;16.924;2023-08-31T05:35:26;11.60;;;9.88;;
49458;SDS011;35354;51.296;16.924;2023-08-31T05:37:52;11.48;;;9.48;;
49458;SDS011;35354;51.296;16.924;2023-08-31T05:40:17;15.23;;;10.75;;
49458;SDS011;35354;51.296;16.924;2023-08-31T05:42:43;10.38;;;9.32;;
49458;SDS011;35354;51.296;16.924;2023-08-31T05:45:09;10.32;;;9.32;;
49458;SDS011;35354;51.296;16.924;2023-08-31T05:47:34;10.60;;;9.30;;
49458;SDS011;35354;51.296;16.924;2023-08-31T05:50:00;11.20;;;9.98;;
49458;SDS011;35354;51.296;16.924;2023-08-31T05:52:26;12.48;;;9.70;;
49458;SDS011;35354;51.296;16.924;2023-08-31T05:54:52;12.50;;;11.20;;
49458;SDS011;35354;51.296;16.924;2023-08-31T05:57:20;11.25;;;10.18;;
49458;SDS011;35354;51.296;16.924;2023-08-31T05:59:48;10.60;;;9.27;;
49458;SDS011;35354;51.296;16.924;2023-08-31T06:02:13;11.02;;;9.77;;
49458;SDS011;35354;51.296;16.924;2023-08-31T06:04:39;13.73;;;9.65;;
49458;SDS011;35354;51.296;16.924;2023-08-31T06:07:04;12.50;;;11.20;;
49458;SDS011;35354;51.296;16.924;2023-08-31T06:09:30;11.32;;;10.05;;
49458;SDS011;35354;51.296;16.924;2023-08-31T06:11:55;13.18;;;10.23;;
49458;SDS011;35354;51.296;16.924;2023-08-31T06:14:20;12.13;;;10.20;;
49458;SDS011;35354;51.296;16.924;2023-08-31T06:16:46;12.85;;;10.60;;
49458;SDS011;35354;51.296;16.924;2023-08-31T06:19:11;12.05;;;10.82;;
49458;SDS011;35354;51.296;16.924;2023-08-31T06:21:40;12.80;;;11.50;;
49458;SDS011;35354;51.296;16.924;2023-08-31T06:24:06;12.40;;;11.18;;
49458;SDS011;35354;51.296;16.924;2023-08-31T06:26:34;11.90;;;10.70;;
49458;SDS011;35354;51.296;16.924;2023-08-31T06:29:00;11.13;;;9.93;;
49458;SDS011;35354;51.296;16.924;2023-08-31T06:31:25;13.32;;;11.32;;
49458;SDS011;35354;51.296;16.924;2023-08-31T06:33:51;12.68;;;11.48;;
49458;SDS011;35354;51.296;16.924;2023-08-31T06:36:16;11.68;;;10.27;;
49458;SDS011;35354;51.296;16.924;2023-08-31T06:38:42;13.63;;;10.57;;
49458;SDS011;35354;51.296;16.924;2023-08-31T06:41:07;11.10;;;9.98;;
49458;SDS011;35354;51.296;16.924;2023-08-31T06:43:34;9.88;;;8.98;;
49458;SDS011;35354;51.296;16.924;2023-08-31T06:45:59;10.75;;;9.65;;
49458;SDS011;35354;51.296;16.924;2023-08-31T06:48:25;10.73;;;9.70;;
49458;SDS011;35354;51.296;16.924;2023-08-31T06:50:51;8.90;;;8.00;;
49458;SDS011;35354;51.296;16.924;2023-08-31T06:53:17;9.95;;;9.05;;
49458;SDS011;35354;51.296;16.924;2023-08-31T06:55:42;10.10;;;8.98;;
49458;SDS011;35354;51.296;16.924;2023-08-31T06:58:08;9.75;;;8.68;;
49458;SDS011;35354;51.296;16.924;2023-08-31T07:00:33;12.50;;;9.98;;
49458;SDS011;35354;51.296;16.924;2023-08-31T07:02:58;10.00;;;9.00;;
49458;SDS011;35354;51.296;16.924;2023-08-31T07:05:26;9.73;;;8.82;;
49458;SDS011;35354;51.296;16.924;2023-08-31T07:07:53;9.68;;;8.15;;
49458;SDS011;35354;51.296;16.924;2023-08-31T07:10:23;8.70;;;7.90;;
49458;SDS011;35354;51.296;16.924;2023-08-31T07:12:48;8.13;;;7.32;;
49458;SDS011;35354;51.296;16.924;2023-08-31T07:15:15;8.77;;;7.88;;
49458;SDS011;35354;51.296;16.924;2023-08-31T07:17:43;10.43;;;7.68;;
49458;SDS011;35354;51.296;16.924;2023-08-31T07:20:11;7.70;;;6.50;;
49458;SDS011;35354;51.296;16.924;2023-08-31T07:22:37;7.00;;;6.30;;
49458;SDS011;35354;51.296;16.924;2023-08-31T07:25:04;8.15;;;6.55;;
49458;SDS011;35354;51.296;16.924;2023-08-31T07:27:31;5.95;;;5.45;;
49458;SDS011;35354;51.296;16.924;2023-08-31T07:29:56;6.85;;;6.25;;
49458;SDS011;35354;51.296;16.924;2023-08-31T07:32:22;6.47;;;5.88;;
49458;SDS011;35354;51.296;16.924;2023-08-31T07:34:47;5.82;;;5.30;;
49458;SDS011;35354;51.296;16.924;2023-08-31T07:37:12;6.13;;;5.50;;
49458;SDS011;35354;51.296;16.924;2023-08-31T07:39:38;6.00;;;5.32;;
49458;SDS011;35354;51.296;16.924;2023-08-31T07:42:04;5.38;;;4.90;;
49458;SDS011;35354;51.296;16.924;2023-08-31T07:44:30;5.78;;;4.75;;
49458;SDS011;35354;51.296;16.924;2023-08-31T07:46:56;5.05;;;4.55;;
49458;SDS011;35354;51.296;16.924;2023-08-31T07:49:21;5.10;;;3.75;;
49458;SDS011;35354;51.296;16.924;2023-08-31T07:51:47;4.22;;;3.92;;
49458;SDS011;35354;51.296;16.924;2023-08-31T07:54:18;6.03;;;4.35;;
49458;SDS011;35354;51.296;16.924;2023-08-31T07:56:47;4.78;;;4.38;;
49458;SDS011;35354;51.296;16.924;2023-08-31T07:59:13;4.30;;;3.90;;
49458;SDS011;35354;51.296;16.924;2023-08-31T08:01:38;4.93;;;4.05;;
49458;SDS011;35354;51.296;16.924;2023-08-31T08:04:04;4.65;;;4.25;;
49458;SDS011;35354;51.296;16.924;2023-08-31T08:06:29;4.10;;;3.80;;
49458;SDS011;35354;51.296;16.924;2023-08-31T08:08:55;4.82;;;4.43;;
49458;SDS011;35354;51.296;16.924;2023-08-31T08:11:21;5.45;;;4.28;;
49458;SDS011;35354;51.296;16.924;2023-08-31T08:13:47;4.82;;;4.43;;
49458;SDS011;35354;51.296;16.924;2023-08-31T08:16:12;4.88;;;4.15;;
49458;SDS011;35354;51.296;16.924;2023-08-31T08:18:39;5.85;;;4.35;;
49458;SDS011;35354;51.296;16.924;2023-08-31T08:21:05;5.25;;;4.50;;
49458;SDS011;35354;51.296;16.924;2023-08-31T08:23:30;4.10;;;3.80;;
49458;SDS011;35354;51.296;16.924;2023-08-31T08:25:55;4.00;;;3.70;;
49458;SDS011;35354;51.296;16.924;2023-08-31T08:28:21;4.40;;;4.00;;
49458;SDS011;35354;51.296;16.924;2023-08-31T08:30:46;4.00;;;3.70;;
49458;SDS011;35354;51.296;16.924;2023-08-31T08:33:12;4.35;;;3.55;;
49458;SDS011;35354;51.296;16.924;2023-08-31T08:35:37;3.50;;;3.20;;
49458;SDS011;35354;51.296;16.924;2023-08-31T08:38:03;3.65;;;3.30;;
49458;SDS011;35354;51.296;16.924;2023-08-31T08:40:30;3.90;;;3.40;;
49458;SDS011;35354;51.296;16.924;2023-08-31T08:42:56;3.53;;;3.25;;
49458;SDS011;35354;51.296;16.924;2023-08-31T08:45:25;3.67;;;3.38;;
49458;SDS011;35354;51.296;16.924;2023-08-31T08:47:55;3.55;;;3.20;;
49458;SDS011;35354;51.296;16.924;2023-08-31T08:50:22;4.07;;;3.58;;
49458;SDS011;35354;51.296;16.924;2023-08-31T08:52:49;3.50;;;3.20;;
49458;SDS011;35354;51.296;16.924;2023-08-31T08:55:15;3.13;;;2.83;;
49458;SDS011;35354;51.296;16.924;2023-08-31T08:57:41;3.40;;;3.10;;
49458;SDS011;35354;51.296;16.924;2023-08-31T09:00:06;3.88;;;3.05;;
49458;SDS011;35354;51.296;16.924;2023-08-31T09:02:32;3.38;;;3.10;;
49458;SDS011;35354;51.296;16.924;2023-08-31T09:04:58;3.08;;;2.85;;
49458;SDS011;35354;51.296;16.924;2023-08-31T09:07:23;3.83;;;3.50;;
49458;SDS011;35354;51.296;16.924;2023-08-31T09:09:52;3.55;;;3.17;;
49458;SDS011;35354;51.296;16.924;2023-08-31T09:12:18;3.85;;;2.97;;
49458;SDS011;35354;51.296;16.924;2023-08-31T09:17:23;5.25;;;3.40;;
49458;SDS011;35354;51.296;16.924;2023-08-31T09:20:01;4.03;;;3.15;;
49458;SDS011;35354;51.296;16.924;2023-08-31T09:22:31;5.35;;;3.35;;
49458;SDS011;35354;51.296;16.924;2023-08-31T09:24:58;5.30;;;2.75;;
49458;SDS011;35354;51.296;16.924;2023-08-31T09:27:23;3.38;;;3.08;;
49458;SDS011;35354;51.296;16.924;2023-08-31T09:29:49;4.72;;;3.33;;
49458;SDS011;35354;51.296;16.924;2023-08-31T09:32:18;3.42;;;3.13;;
49458;SDS011;35354;51.296;16.924;2023-08-31T09:34:44;7.10;;;3.15;;
49458;SDS011;35354;51.296;16.924;2023-08-31T09:37:10;4.32;;;3.30;;
49458;SDS011;35354;51.296;16.924;2023-08-31T09:39:36;3.83;;;3.10;;
49458;SDS011;35354;51.296;16.924;2023-08-31T09:42:03;4.55;;;3.03;;
49458;SDS011;35354;51.296;16.924;2023-08-31T09:44:29;5.45;;;3.22;;
49458;SDS011;35354;51.296;16.924;2023-08-31T09:46:54;5.20;;;3.28;;
49458;SDS011;35354;51.296;16.924;2023-08-31T09:49:21;3.72;;;3.25;;
49458;SDS011;35354;51.296;16.924;2023-08-31T09:51:48;3.50;;;3.15;;
49458;SDS011;35354;51.296;16.924;2023-08-31T09:54:15;3.88;;;3.45;;
49458;SDS011;35354;51.296;16.924;2023-08-31T09:56:47;4.18;;;3.72;;
49458;SDS011;35354;51.296;16.924;2023-08-31T09:59:13;4.47;;;3.53;;
49458;SDS011;35354;51.296;16.924;2023-08-31T10:01:41;3.67;;;3.30;;
49458;SDS011;35354;51.296;16.924;2023-08-31T10:04:08;4.20;;;3.80;;
49458;SDS011;35354;51.296;16.924;2023-08-31T10:06:40;4.00;;;3.63;;
49458;SDS011;35354;51.296;16.924;2023-08-31T10:09:06;3.90;;;3.60;;
49458;SDS011;35354;51.296;16.924;2023-08-31T10:11:34;4.13;;;3.13;;
49458;SDS011;35354;51.296;16.924;2023-08-31T10:14:01;3.72;;;3.30;;
49458;SDS011;35354;51.296;16.924;2023-08-31T10:16:29;3.30;;;2.97;;
49458;SDS011;35354;51.296;16.924;2023-08-31T10:18:55;4.32;;;3.72;;
49458;SDS011;35354;51.296;16.924;2023-08-31T10:21:21;4.55;;;3.38;;
49458;SDS011;35354;51.296;16.924;2023-08-31T10:23:47;3.90;;;3.50;;
49458;SDS011;35354;51.296;16.924;2023-08-31T10:26:24;5.18;;;3.80;;
49458;SDS011;35354;51.296;16.924;2023-08-31T10:28:53;3.75;;;3.15;;
49458;SDS011;35354;51.296;16.924;2023-08-31T10:31:19;5.40;;;3.40;;
49458;SDS011;35354;51.296;16.924;2023-08-31T10:33:57;3.30;;;2.70;;
49458;SDS011;35354;51.296;16.924;2023-08-31T10:36:34;3.00;;;2.75;;
49458;SDS011;35354;51.296;16.924;2023-08-31T10:41:38;3.05;;;2.75;;
49458;SDS011;35354;51.296;16.924;2023-08-31T10:44:17;3.30;;;3.00;;
49458;SDS011;35354;51.296;16.924;2023-08-31T10:46:45;3.00;;;2.80;;
49458;SDS011;35354;51.296;16.924;2023-08-31T10:51:37;3.75;;;2.90;;
49458;SDS011;35354;51.296;16.924;2023-08-31T10:54:08;5.70;;;3.70;;
49458;SDS011;35354;51.296;16.924;2023-08-31T10:59:26;3.88;;;3.58;;
49458;SDS011;35354;51.296;16.924;2023-08-31T11:02:07;6.07;;;3.92;;
49458;SDS011;35354;51.296;16.924;2023-08-31T11:04:51;3.90;;;3.60;;
49458;SDS011;35354;51.296;16.924;2023-08-31T11:07:24;4.32;;;3.90;;
49458;SDS011;35354;51.296;16.924;2023-08-31T11:09:51;4.90;;;3.42;;
49458;SDS011;35354;51.296;16.924;2023-08-31T11:12:17;5.93;;;3.60;;
49458;SDS011;35354;51.296;16.924;2023-08-31T11:14:42;4.32;;;3.92;;
49458;SDS011;35354;51.296;16.924;2023-08-31T11:17:07;3.92;;;3.50;;
49458;SDS011;35354;51.296;16.924;2023-08-31T11:19:34;4.35;;;3.95;;
49458;SDS011;35354;51.296;16.924;2023-08-31T11:22:01;3.67;;;3.30;;
49458;SDS011;35354;51.296;16.924;2023-08-31T11:24:31;3.88;;;3.45;;
49458;SDS011;35354;51.296;16.924;2023-08-31T11:26:57;4.18;;;3.78;;
49458;SDS011;35354;51.296;16.924;2023-08-31T11:29:22;5.03;;;4.00;;
49458;SDS011;35354;51.296;16.924;2023-08-31T11:31:48;6.35;;;4.43;;
49458;SDS011;35354;51.296;16.924;2023-08-31T11:34:14;5.53;;;5.00;;
49458;SDS011;35354;51.296;16.924;2023-08-31T11:36:44;4.47;;;4.07;;
49458;SDS011;35354;51.296;16.924;2023-08-31T11:39:11;7.53;;;4.45;;
49458;SDS011;35354;51.296;16.924;2023-08-31T11:41:37;5.07;;;4.40;;
49458;SDS011;35354;51.296;16.924;2023-08-31T11:44:13;4.85;;;4.40;;
49458;SDS011;35354;51.296;16.924;2023-08-31T11:46:41;8.60;;;4.47;;
49458;SDS011;35354;51.296;16.924;2023-08-31T11:49:09;5.80;;;4.45;;
49458;SDS011;35354;51.296;16.924;2023-08-31T11:51:35;5.25;;;4.38;;
49458;SDS011;35354;51.296;16.924;2023-08-31T11:54:04;5.13;;;4.63;;
49458;SDS011;35354;51.296;16.924;2023-08-31T11:56:39;4.70;;;4.30;;
49458;SDS011;35354;51.296;16.924;2023-08-31T11:59:09;5.30;;;4.80;;
49458;SDS011;35354;51.296;16.924;2023-08-31T12:01:39;5.70;;;4.47;;
49458;SDS011;35354;51.296;16.924;2023-08-31T12:04:13;4.82;;;3.63;;
49458;SDS011;35354;51.296;16.924;2023-08-31T12:06:39;5.28;;;3.97;;
49458;SDS011;35354;51.296;16.924;2023-08-31T12:09:08;5.13;;;4.63;;
49458;SDS011;35354;51.296;16.924;2023-08-31T12:11:34;4.47;;;3.72;;
49458;SDS011;35354;51.296;16.924;2023-08-31T12:14:00;5.28;;;3.47;;
49458;SDS011;35354;51.296;16.924;2023-08-31T12:16:42;4.30;;;3.67;;
49458;SDS011;35354;51.296;16.924;2023-08-31T12:19:09;3.80;;;3.47;;
49458;SDS011;35354;51.296;16.924;2023-08-31T12:21:34;5.72;;;4.03;;
49458;SDS011;35354;51.296;16.924;2023-08-31T12:24:00;3.75;;;3.22;;
49458;SDS011;35354;51.296;16.924;2023-08-31T12:26:28;3.78;;;3.10;;
49458;SDS011;35354;51.296;16.924;2023-08-31T12:28:53;4.80;;;3.40;;
49458;SDS011;35354;51.296;16.924;2023-08-31T12:31:19;3.90;;;3.30;;
49458;SDS011;35354;51.296;16.924;2023-08-31T12:33:44;4.07;;;3.38;;
49458;SDS011;35354;51.296;16.924;2023-08-31T12:36:09;3.90;;;3.42;;
49458;SDS011;35354;51.296;16.924;2023-08-31T12:38:35;4.38;;;3.10;;
49458;SDS011;35354;51.296;16.924;2023-08-31T12:41:00;4.22;;;3.83;;
49458;SDS011;35354;51.296;16.924;2023-08-31T12:43:27;4.00;;;3.33;;
49458;SDS011;35354;51.296;16.924;2023-08-31T12:45:56;3.50;;;3.20;;
49458;SDS011;35354;51.296;16.924;2023-08-31T12:48:22;7.28;;;3.53;;
49458;SDS011;35354;51.296;16.924;2023-08-31T12:50:48;3.60;;;3.00;;
49458;SDS011;35354;51.296;16.924;2023-08-31T12:53:13;4.20;;;3.45;;
49458;SDS011;35354;51.296;16.924;2023-08-31T12:55:39;3.63;;;2.83;;
49458;SDS011;35354;51.296;16.924;2023-08-31T12:58:05;4.07;;;2.90;;
49458;SDS011;35354;51.296;16.924;2023-08-31T13:00:30;3.03;;;2.70;;
49458;SDS011;35354;51.296;16.924;2023-08-31T13:02:56;3.33;;;3.03;;
49458;SDS011;35354;51.296;16.924;2023-08-31T13:05:21;6.35;;;3.28;;
49458;SDS011;35354;51.296;16.924;2023-08-31T13:07:47;3.08;;;2.65;;
49458;SDS011;35354;51.296;16.924;2023-08-31T13:10:12;3.10;;;2.55;;
49458;SDS011;35354;51.296;16.924;2023-08-31T13:12:37;5.35;;;3.53;;
49458;SDS011;35354;51.296;16.924;2023-08-31T13:15:03;3.30;;;2.97;;
49458;SDS011;35354;51.296;16.924;2023-08-31T13:17:28;2.60;;;2.40;;
49458;SDS011;35354;51.296;16.924;2023-08-31T13:19:54;3.20;;;2.80;;
49458;SDS011;35354;51.296;16.924;2023-08-31T13:22:23;4.00;;;2.90;;
49458;SDS011;35354;51.296;16.924;2023-08-31T13:24:49;5.43;;;3.35;;
49458;SDS011;35354;51.296;16.924;2023-08-31T13:27:15;3.90;;;2.63;;
49458;SDS011;35354;51.296;16.924;2023-08-31T13:29:41;4.18;;;3.30;;
49458;SDS011;35354;51.296;16.924;2023-08-31T13:32:07;3.17;;;2.88;;
49458;SDS011;35354;51.296;16.924;2023-08-31T13:34:33;5.05;;;3.22;;
49458;SDS011;35354;51.296;16.924;2023-08-31T13:36:59;3.80;;;2.60;;
49458;SDS011;35354;51.296;16.924;2023-08-31T13:39:25;4.07;;;3.13;;
49458;SDS011;35354;51.296;16.924;2023-08-31T13:41:51;2.60;;;2.40;;
49458;SDS011;35354;51.296;16.924;2023-08-31T13:44:18;2.33;;;2.15;;
49458;SDS011;35354;51.296;16.924;2023-08-31T13:46:45;2.88;;;2.50;;
49458;SDS011;35354;51.296;16.924;2023-08-31T13:49:11;3.35;;;2.78;;
49458;SDS011;35354;51.296;16.924;2023-08-31T13:51:36;4.95;;;2.85;;
49458;SDS011;35354;51.296;16.924;2023-08-31T13:54:02;3.03;;;2.60;;
49458;SDS011;35354;51.296;16.924;2023-08-31T13:56:28;3.75;;;3.05;;
49458;SDS011;35354;51.296;16.924;2023-08-31T13:58:54;3.75;;;2.50;;
49458;SDS011;35354;51.296;16.924;2023-08-31T14:01:19;3.03;;;2.72;;
49458;SDS011;35354;51.296;16.924;2023-08-31T14:03:45;3.08;;;2.78;;
49458;SDS011;35354;51.296;16.924;2023-08-31T14:06:10;3.10;;;2.80;;
49458;SDS011;35354;51.296;16.924;2023-08-31T14:08:36;2.90;;;2.60;;
49458;SDS011;35354;51.296;16.924;2023-08-31T14:11:01;4.55;;;3.03;;
49458;SDS011;35354;51.296;16.924;2023-08-31T14:13:27;3.08;;;2.53;;
49458;SDS011;35354;51.296;16.924;2023-08-31T14:15:52;2.83;;;2.53;;
49458;SDS011;35354;51.296;16.924;2023-08-31T14:18:19;3.35;;;2.72;;
49458;SDS011;35354;51.296;16.924;2023-08-31T14:20:44;3.55;;;2.63;;
49458;SDS011;35354;51.296;16.924;2023-08-31T14:23:10;4.15;;;2.83;;
49458;SDS011;35354;51.296;16.924;2023-08-31T14:25:35;3.30;;;2.90;;
49458;SDS011;35354;51.296;16.924;2023-08-31T14:28:03;3.53;;;2.70;;
49458;SDS011;35354;51.296;16.924;2023-08-31T14:30:29;3.22;;;2.92;;
49458;SDS011;35354;51.296;16.924;2023-08-31T14:32:55;3.50;;;2.63;;
49458;SDS011;35354;51.296;16.924;2023-08-31T14:35:21;3.28;;;2.83;;
49458;SDS011;35354;51.296;16.924;2023-08-31T14:37:46;3.20;;;2.90;;
49458;SDS011;35354;51.296;16.924;2023-08-31T14:40:12;3.25;;;2.95;;
49458;SDS011;35354;51.296;16.924;2023-08-31T14:42:37;3.83;;;2.95;;
49458;SDS011;35354;51.296;16.924;2023-08-31T14:45:03;4.57;;;2.97;;
49458;SDS011;35354;51.296;16.924;2023-08-31T14:47:28;3.45;;;2.95;;
49458;SDS011;35354;51.296;16.924;2023-08-31T14:49:57;3.40;;;2.45;;
49458;SDS011;35354;51.296;16.924;2023-08-31T14:52:23;3.65;;;2.38;;